createdAt,value
2019-02-07T00:01:41.673Z,72.62
2019-02-07T00:05:48.912Z,72.51
2019-02-07T00:09:56.602Z,72.31
2019-02-07T00:14:03.903Z,72.01
2019-02-07T00:18:11.346Z,71.97
2019-02-07T00:22:18.788Z,72.05
2019-02-07T00:26:30.351Z,71.62
2019-02-07T00:30:38.425Z,71.87
2019-02-07T00:34:46.042Z,72.05
2019-02-07T00:38:53.504Z,71.94
2019-02-07T00:43:02.132Z,71.60
2019-02-07T00:47:09.827Z,71.58
2019-02-07T00:51:17.460Z,71.78
2019-02-07T00:55:24.566Z,72.04
2019-02-07T00:59:31.440Z,72.28
2019-02-07T01:03:38.418Z,71.88
2019-02-07T01:07:45.972Z,71.59
2019-02-07T01:11:53.858Z,72.41
2019-02-07T01:16:00.694Z,72.36
2019-02-07T01:20:10.910Z,72.97
2019-02-07T01:24:17.798Z,73.12
2019-02-07T01:28:24.733Z,73.15
2019-02-07T01:32:31.582Z,72.93
2019-02-07T01:36:38.399Z,73.07
2019-02-07T01:40:45.479Z,72.57
2019-02-07T01:44:52.388Z,72.92
2019-02-07T01:48:59.275Z,73.73
2019-02-07T01:53:06.546Z,73.68
2019-02-07T01:57:13.903Z,73.36
2019-02-07T02:01:21.280Z,72.78
2019-02-07T02:05:35.973Z,73.05
2019-02-07T02:09:42.879Z,73.23
2019-02-07T02:13:49.705Z,72.55
2019-02-07T02:17:56.644Z,72.69
2019-02-07T02:22:03.940Z,72.45
2019-02-07T02:26:10.795Z,72.26
2019-02-07T02:30:25.703Z,72.28
2019-02-07T02:34:32.561Z,71.83
2019-02-07T02:38:39.561Z,72.72
2019-02-07T02:42:46.898Z,72.81
2019-02-07T02:46:53.778Z,73.05
2019-02-07T02:51:00.869Z,72.64
2019-02-07T02:55:09.056Z,72.61
2019-02-07T02:59:15.938Z,72.71
2019-02-07T03:03:48.439Z,72.04
2019-02-07T03:08:16.966Z,72.61
2019-02-07T03:12:43.915Z,72.31
2019-02-07T03:17:12.715Z,72.12
2019-02-07T03:21:32.946Z,72.00
2019-02-07T03:26:03.689Z,72.31
2019-02-07T03:30:33.381Z,72.00
2019-02-07T03:35:01.996Z,71.51
2019-02-07T03:39:28.463Z,71.42
2019-02-07T03:43:51.917Z,71.10
2019-02-07T03:48:20.694Z,70.93
2019-02-07T03:52:55.412Z,70.68
2019-02-07T03:57:16.133Z,70.32
2019-02-07T04:01:42.228Z,70.66
2019-02-07T04:06:07.049Z,70.33
2019-02-07T04:10:24.150Z,70.77
2019-02-07T04:14:59.381Z,70.24
2019-02-07T04:19:31.585Z,71.08
2019-02-07T04:24:06.766Z,71.30
2019-02-07T04:28:32.432Z,71.61
2019-02-07T04:32:57.535Z,71.62
2019-02-07T04:37:26.173Z,71.35
2019-02-07T04:41:45.642Z,71.24
2019-02-07T04:46:26.409Z,71.94
2019-02-07T04:50:44.322Z,70.98
2019-02-07T04:54:59.905Z,70.57
2019-02-07T04:59:27.315Z,70.36
2019-02-07T05:04:05.460Z,70.14
2019-02-07T05:08:33.385Z,70.22
2019-02-07T05:13:12.119Z,70.66
2019-02-07T05:17:29.335Z,70.62
2019-02-07T05:21:54.093Z,70.37
2019-02-07T05:26:12.784Z,70.31
2019-02-07T05:30:29.824Z,70.34
2019-02-07T05:35:07.651Z,70.22
2019-02-07T05:39:33.476Z,70.43
2019-02-07T05:43:57.845Z,70.30
2019-02-07T05:48:21.834Z,70.09
2019-02-07T05:53:02.643Z,70.40
2019-02-07T05:57:27.392Z,70.40
2019-02-07T06:01:51.829Z,70.35
2019-02-07T06:06:16.577Z,69.98
2019-02-07T06:11:08.916Z,70.03
2019-02-07T06:15:37.752Z,70.30
2019-02-07T06:20:13.297Z,70.21
2019-02-07T06:24:54.839Z,70.30
2019-02-07T06:29:20.010Z,70.76
2019-02-07T06:33:44.487Z,70.49
2019-02-07T06:37:59.492Z,71.13
2019-02-07T06:42:23.553Z,70.52
2019-02-07T06:46:58.762Z,70.33
2019-02-07T06:51:27.857Z,70.81
2019-02-07T06:55:54.565Z,70.58
2019-02-07T07:00:34.155Z,70.16
2019-02-07T07:05:00.136Z,71.00
2019-02-07T07:09:36.790Z,71.06
2019-02-07T07:14:11.801Z,70.25
2019-02-07T07:18:46.824Z,69.75
2019-02-07T07:23:21.882Z,69.64
2019-02-07T07:27:56.543Z,70.06
2019-02-07T07:32:21.479Z,69.88
2019-02-07T07:36:50.080Z,70.34
2019-02-07T07:41:34.083Z,70.34
2019-02-07T07:45:58.749Z,70.51
2019-02-07T07:50:26.224Z,70.40
2019-02-07T07:54:42.845Z,70.74
2019-02-07T07:59:07.145Z,71.25
2019-02-07T08:03:41.977Z,71.58
2019-02-07T08:08:07.113Z,70.79
2019-02-07T08:12:44.927Z,71.37
2019-02-07T08:17:15.228Z,71.54
2019-02-07T08:21:49.424Z,72.26
2019-02-07T08:26:13.475Z,72.82
2019-02-07T08:30:54.566Z,72.25
2019-02-07T08:35:11.532Z,71.91
2019-02-07T08:39:38.336Z,72.25
2019-02-07T08:44:07.148Z,72.46
2019-02-07T08:48:38.836Z,73.55
2019-02-07T08:53:10.745Z,73.53
2019-02-07T08:57:40.257Z,73.62
2019-02-07T09:02:06.039Z,74.14
2019-02-07T09:06:31.793Z,74.51
2019-02-07T09:11:03.834Z,75.71
2019-02-07T09:15:27.330Z,75.59
2019-02-07T09:19:55.858Z,75.46
2019-02-07T09:24:20.593Z,76.74
2019-02-07T09:28:45.096Z,76.32
2019-02-07T09:33:23.406Z,76.07
2019-02-07T09:37:48.930Z,75.46
2019-02-07T09:42:13.256Z,76.62
2019-02-07T09:46:38.129Z,77.73
2019-02-07T09:50:58.261Z,78.69
2019-02-07T09:55:19.716Z,78.49
2019-02-07T09:59:57.834Z,78.40
2019-02-07T10:04:11.202Z,78.33
2019-02-07T10:08:35.817Z,78.87
2019-02-07T10:13:07.049Z,79.13
2019-02-07T10:17:27.955Z,78.86
2019-02-07T10:22:06.480Z,79.31
2019-02-07T10:26:31.167Z,79.66
2019-02-07T10:31:02.880Z,79.62
2019-02-07T10:35:27.765Z,79.84
2019-02-07T10:39:59.147Z,80.42
2019-02-07T10:44:23.738Z,80.32
2019-02-07T10:48:44.756Z,81.19
2019-02-07T10:53:13.642Z,80.79
2019-02-07T10:57:34.396Z,80.92
2019-02-07T11:02:09.535Z,80.81
2019-02-07T11:06:44.061Z,80.80
2019-02-07T11:11:21.856Z,80.47
2019-02-07T11:16:05.956Z,80.62
2019-02-07T11:20:30.977Z,80.01
2019-02-07T11:24:54.762Z,80.27
2019-02-07T11:29:19.333Z,80.15
2019-02-07T11:33:44.124Z,79.96
2019-02-07T11:38:22.249Z,79.97
2019-02-07T11:42:47.983Z,79.64
2019-02-07T11:47:22.797Z,79.89
2019-02-07T11:51:48.383Z,80.04
2019-02-07T11:56:12.623Z,80.52
2019-02-07T12:00:36.148Z,80.66
2019-02-07T12:05:02.087Z,80.62
2019-02-07T12:09:28.811Z,80.30
2019-02-07T12:13:58.052Z,80.46
2019-02-07T12:18:36.195Z,81.01
2019-02-07T12:23:15.186Z,80.98
2019-02-07T12:27:31.780Z,80.54
2019-02-07T12:32:00.660Z,81.05
2019-02-07T12:36:29.426Z,80.92
2019-02-07T12:40:55.702Z,81.12
2019-02-07T12:45:32.658Z,80.77
2019-02-07T12:50:03.067Z,81.21
2019-02-07T12:54:35.206Z,81.05
2019-02-07T12:59:19.510Z,81.41
2019-02-07T13:04:03.896Z,81.04
2019-02-07T13:08:38.916Z,81.34
2019-02-07T13:13:04.646Z,81.85
2019-02-07T13:17:45.943Z,81.45
2019-02-07T13:22:14.807Z,81.45
2019-02-07T13:26:33.004Z,81.51
2019-02-07T13:31:02.009Z,81.75
2019-02-07T13:35:27.374Z,81.98
2019-02-07T13:39:46.443Z,82.04
2019-02-07T13:44:18.379Z,81.71
2019-02-07T13:48:50.189Z,81.77
2019-02-07T13:53:09.098Z,81.33
2019-02-07T13:57:47.103Z,81.81
2019-02-07T14:02:12.218Z,81.30
2019-02-07T14:06:47.859Z,81.03
2019-02-07T14:11:16.505Z,80.96
2019-02-07T14:15:45.225Z,80.88
2019-02-07T14:20:14.366Z,80.21
2019-02-07T14:24:40.280Z,80.49
2019-02-07T14:29:09.430Z,80.59
2019-02-07T14:33:47.420Z,80.36
2019-02-07T14:38:28.403Z,80.30
2019-02-07T14:43:00.101Z,79.77
2019-02-07T14:47:07.064Z,80.38
2019-02-07T14:51:14.755Z,80.07
2019-02-07T14:55:21.909Z,79.97
2019-02-07T14:59:28.959Z,80.76
2019-02-07T15:03:37.516Z,80.39
2019-02-07T15:07:44.531Z,80.98
2019-02-07T15:11:51.643Z,80.51
2019-02-07T15:15:58.750Z,80.88
2019-02-07T15:20:07.034Z,81.11
2019-02-07T15:24:14.546Z,80.83
2019-02-07T15:28:21.891Z,81.23
2019-02-07T15:32:29.457Z,80.72
2019-02-07T15:36:37.191Z,80.76
2019-02-07T15:40:45.045Z,80.89
2019-02-07T15:44:53.700Z,80.85
2019-02-07T15:49:02.840Z,81.09
2019-02-07T15:53:11.299Z,80.92
2019-02-07T15:57:18.814Z,81.09
2019-02-07T16:01:43.286Z,81.22
2019-02-07T16:05:50.876Z,81.12
2019-02-07T16:09:58.010Z,81.13
2019-02-07T16:14:06.571Z,81.20
2019-02-07T16:18:13.828Z,80.73
2019-02-07T16:22:22.094Z,81.25
2019-02-07T16:26:32.744Z,81.51
2019-02-07T16:30:40.297Z,81.41
2019-02-07T16:34:47.301Z,81.55
2019-02-07T16:38:55.841Z,81.50
2019-02-07T16:43:04.119Z,81.46
2019-02-07T16:47:12.070Z,81.95
2019-02-07T16:51:19.618Z,81.17
2019-02-07T16:55:27.457Z,80.81
2019-02-07T16:59:35.530Z,81.66
2019-02-07T17:03:43.514Z,81.46
2019-02-07T17:07:55.877Z,82.14
2019-02-07T17:12:04.865Z,83.20
2019-02-07T17:16:12.483Z,82.80
2019-02-07T17:20:27.546Z,82.67
2019-02-07T17:24:34.616Z,82.82
2019-02-07T17:28:43.364Z,82.40
2019-02-07T17:32:51.075Z,82.43
2019-02-07T17:36:58.807Z,82.31
2019-02-07T17:41:06.365Z,83.41
2019-02-07T17:45:23.544Z,83.42
2019-02-07T17:49:39.114Z,83.48
2019-02-07T17:53:48.120Z,83.41
2019-02-07T17:57:56.478Z,83.57
2019-02-07T18:02:07.120Z,83.81
2019-02-07T18:06:14.467Z,84.26
2019-02-07T18:10:22.027Z,84.17
2019-02-07T18:14:41.781Z,84.39
2019-02-07T18:19:19.915Z,84.53
2019-02-07T18:23:30.851Z,84.26
2019-02-07T18:27:37.846Z,83.94
2019-02-07T18:31:45.056Z,84.14
2019-02-07T18:35:52.350Z,84.07
2019-02-07T18:39:59.505Z,83.81
2019-02-07T18:44:07.105Z,83.73
2019-02-07T18:48:14.428Z,83.74
2019-02-07T18:52:22.264Z,83.50
2019-02-07T18:56:30.876Z,83.46
2019-02-07T19:00:39.302Z,83.20
2019-02-07T19:04:46.503Z,82.90
2019-02-07T19:08:53.919Z,82.94
2019-02-07T19:13:03.848Z,82.92
2019-02-07T19:17:10.939Z,82.73
2019-02-07T19:21:18.139Z,82.76
2019-02-07T19:25:25.604Z,82.56
2019-02-07T19:29:34.313Z,82.49
2019-02-07T19:33:44.008Z,82.25
2019-02-07T19:37:51.386Z,82.14
2019-02-07T19:41:58.558Z,82.17
2019-02-07T19:46:05.913Z,82.77
2019-02-07T19:50:18.736Z,82.38
2019-02-07T19:54:25.957Z,82.96
2019-02-07T19:58:33.580Z,82.95
2019-02-07T20:02:41.116Z,83.29
2019-02-07T20:06:50.474Z,83.69
2019-02-07T20:10:57.441Z,83.63
2019-02-07T20:15:19.810Z,83.72
2019-02-07T20:19:27.044Z,84.98
2019-02-07T20:23:34.477Z,84.37
2019-02-07T20:27:41.508Z,83.92
2019-02-07T20:31:48.555Z,83.45
2019-02-07T20:35:56.660Z,83.66
2019-02-07T20:40:05.195Z,83.49
2019-02-07T20:44:14.018Z,83.83
2019-02-07T20:48:21.376Z,83.82
2019-02-07T20:52:28.407Z,84.33
2019-02-07T20:56:37.402Z,83.60
2019-02-07T21:00:47.559Z,83.52
2019-02-07T21:04:54.551Z,83.43
2019-02-07T21:09:07.913Z,83.34
2019-02-07T21:13:20.619Z,83.04
2019-02-07T21:17:27.539Z,84.37
2019-02-07T21:21:36.347Z,83.40
2019-02-07T21:25:51.286Z,82.97
2019-02-07T21:29:58.196Z,83.00
2019-02-07T21:34:06.960Z,82.88
2019-02-07T21:38:17.106Z,82.80
2019-02-07T21:42:23.988Z,82.69
2019-02-07T21:46:35.975Z,82.55
2019-02-07T21:50:43.874Z,82.43
2019-02-07T21:54:50.951Z,82.19
2019-02-07T21:58:58.146Z,81.97
2019-02-07T22:03:08.808Z,81.94
2019-02-07T22:07:15.820Z,81.79
2019-02-07T22:11:25.968Z,81.58
2019-02-07T22:15:35.225Z,81.50
2019-02-07T22:19:42.168Z,81.26
2019-02-07T22:23:49.275Z,81.00
2019-02-07T22:27:56.474Z,80.72
2019-02-07T22:32:03.739Z,80.46
2019-02-07T22:36:11.471Z,80.58
2019-02-07T22:40:21.531Z,80.40
2019-02-07T22:44:28.414Z,80.47
2019-02-07T22:48:36.419Z,80.68
2019-02-07T22:52:43.231Z,80.38
2019-02-07T22:56:51.146Z,80.53
2019-02-07T23:01:59.676Z,80.35
2019-02-07T23:06:07.073Z,80.19
2019-02-07T23:10:13.961Z,79.88
2019-02-07T23:14:21.049Z,79.85
2019-02-07T23:18:27.911Z,79.56
2019-02-07T23:22:34.716Z,79.35
2019-02-07T23:26:41.555Z,79.68
2019-02-07T23:30:48.545Z,79.24
2019-02-07T23:34:56.454Z,78.85
2019-02-07T23:39:06.848Z,78.86
2019-02-07T23:43:15.833Z,79.06
2019-02-07T23:47:22.719Z,78.97
2019-02-07T23:51:30.389Z,79.16
2019-02-07T23:55:37.513Z,79.20
2019-02-07T23:59:45.944Z,79.29
